Dutse International Airport

DNDS · Jigawa, Nigeria

METAR historie DNDS · Dutse International Airport

Hieronder zie je METAR's van de afgelopen dagen. Kies een jaar om door oudere METAR's te bladeren, vanaf het jaar 2007.

13 juni 2024

Tijd Code Weer Temp. Zicht Plafond Wind METAR/SPECI
23:00
V
30 °C 10 km+ - 240° 240° 3 kt METAR DNKN 132200Z 24003KT 9999 FEW012 30/25 Q1015 NOSIG
22:00
V
30 °C 10 km+ - 290° 290° 4 kt METAR DNKN 132100Z 29004KT CAVOK 30/25 Q1015 NOSIG
21:00
V
31 °C 10 km+ - 300° 300° 5 kt METAR DNKN 132000Z 30005KT CAVOK 31/24 Q1014 NOSIG
20:00
V
29 °C 10 km+ - 290° 290° 5 kt METAR DNKN 131900Z 29005KT CAVOK 29/20 Q1013 NOSIG
19:00
V
29 °C 10 km+ - 300° 300° 5 kt METAR DNKN 131800Z 30005KT CAVOK 29/20 Q1012 NOSIG
18:00
V
29 °C 10 km+ - 300° 300° 7 kt METAR DNKN 131700Z 30007KT CAVOK 29/20 Q1012 NOSIG
17:00
V
30 °C 10 km+ - 300° 300° 6 kt METAR DNKN 131600Z 30006KT 9999 FEW012 30/22 Q1012 NOSIG
16:00
V
35 °C 10 km+ - 290° 290° 6 kt METAR DNKN 131500Z 29006KT 9999 FEW014 35/22 Q1013 NOSIG
15:00
V
34 °C 10 km+ - 260° 260° 5 kt METAR DNKN 131400Z 26005KT 9999 FEW013 34/23 Q1013 NOSIG
14:00
V
34 °C 10 km+ - 270° 270° 6 kt METAR DNKN 131300Z 27006KT 9999 FEW013 34/23 Q1014 NOSIG
13:00
V
33 °C 10 km+ - 270° 270° 5 kt METAR DNKN 131200Z 27005KT 9999 FEW013 33/23 Q1015 NOSIG
12:00
V
33 °C 10 km+ - 300° 300° 3 kt METAR DNKN 131100Z 30003KT CAVOK 33/24 Q1016 NOSIG
11:00
V
30 °C 10 km+ - 200° 200° 4 kt METAR DNKN 131000Z 20004KT CAVOK 30/24 Q1016 NOSIG
10:00
V
29 °C 10 km+ - 200° 200° 9 kt METAR DNKN 130900Z 20009KT CAVOK 29/24 Q1016 NOSIG
09:00
V
29 °C 10 km+ - 200° 200° 12 kt METAR DNKN 130800Z 20012KT CAVOK 29/24 Q1016 NOSIG
08:00
V
27 °C 10 km+ - 230° 230° 6 kt METAR DNKN 130700Z 23006KT CAVOK 27/24 Q1016 NOSIG
07:00
V
26 °C 10 km+ - 220° 220° 5 kt METAR DNKN 130600Z 22005KT CAVOK 26/24 Q1016 NOSIG
06:00
V
26 °C 10 km+ - 360° 360° 0 kt METAR DNKN 130500Z 00000KT CAVOK 26/24 Q1015 NOSIG
01:00
V
28 °C 10 km+ - 360° 360° 0 kt METAR DNKN 130000Z 00000KT CAVOK 28/25 Q1015 NOSIG
00:00
V
29 °C 10 km+ - 290° 290° 3 kt METAR DNKN 122300Z 29003KT CAVOK 29/25 Q1016 NOSIG

12 juni 2024

Tijd Code Weer Temp. Zicht Plafond Wind METAR/SPECI
23:00
V
28 °C 10 km+ - 360° 360° 0 kt METAR DNKN 122200Z 00000KT CAVOK 28/24 Q1016 NOSIG
22:00
V
29 °C 10 km+ - 360° 360° 0 kt METAR DNKN 122100Z 00000KT CAVOK 29/24 Q1016 NOSIG
21:00
V
29 °C 10 km+ - 020° 020° 4 kt METAR DNKN 122000Z 02004KT CAVOK 29/23 Q1015 NOSIG
20:00
V
29 °C 10 km+ - 030° 030° 4 kt METAR DNKN 121900Z 03004KT 9999 FEW011 29/23 Q1015 NOSIG
19:00
V
30 °C 10 km+ - 040° 040° 5 kt METAR DNKN 121800Z 04005KT 9999 FEW012 30/22 Q1014 NOSIG
18:00
V
32 °C 10 km+ - 040° 040° 4 kt METAR DNKN 121700Z 04004KT 9999 FEW013 32/21 Q1014 NOSIG
17:00
V
32 °C 10 km+ - 050° 050° 5 kt METAR DNKN 121600Z 05005KT 9999 FEW012 32/23 Q1013 NOSIG
12:00
M
29 °C 10 km+ 1.100 ft 230° 230° 6 kt METAR DNKN 121100Z 23006KT 9999 BKN011 29/23 Q1017 NOSIG
10:00
U
28 °C 0 m - 230° 230° 10 kt METAR DNKN 120900Z 23010KT SCT011 28/23 Q1018 NOSIG
09:00
V
27 °C 10 km+ - 230° 230° 9 kt METAR DNKN 120800Z 23009KT CAVOK 27/23 Q1018 NOSIG
08:00
V
26 °C 8 km - 230° 230° 5 kt METAR DNKN 120700Z 23005KT 8000 BR NSC 26/23 Q1018 NOSIG
07:00
V
24 °C 8 km - 240° 240° 4 kt METAR DNKN 120600Z 24004KT 8000 BR NSC 24/23 Q1017 NOSIG
06:00
V
24 °C 10 km+ - 200° 200° 4 kt METAR DNKN 120500Z 20004KT CAVOK 24/23 Q1017 NOSIG
05:00
V
24 °C 10 km+ - 360° 360° 0 kt METAR DNKN 120400Z 00000KT CAVOK 24/24 Q1017 NOSIG
04:00
V
25 °C 10 km+ - 360° 360° 0 kt METAR DNKN 120300Z 00000KT CAVOK 25/22 Q1016 NOSIG
03:00
V
25 °C 10 km+ - 360° 360° 0 kt METAR DNKN 120200Z 00000KT CAVOK 25/23 Q1016 NOSIG
02:00
V
25 °C 10 km+ - 360° 360° 0 kt METAR DNKN 120100Z 00000KT CAVOK 25/23 Q1016 NOSIG
01:00
V
25 °C 10 km+ - 360° 360° 0 kt METAR DNKN 120000Z 00000KT CAVOK 25/23 Q1016 NOSIG
00:00
V
26 °C 10 km+ - 070° 070° 5 kt METAR DNKN 112300Z 07005KT CAVOK 26/23 Q1017 NOSIG

11 juni 2024

Tijd Code Weer Temp. Zicht Plafond Wind METAR/SPECI
23:00
V
26 °C 10 km+ - 100° 100° 4 kt METAR DNKN 112200Z 10004KT CAVOK 26/24 Q1017 NOSIG
22:00
V
26 °C 10 km+ - 360° 360° 0 kt METAR DNKN 112100Z 00000KT CAVOK 26/23 Q1017 NOSIG
21:00
V
26 °C 10 km+ - 040° 040° 3 kt METAR DNKN 112000Z 04003KT 9999 FEW010 26/23 Q1016 NOSIG
20:00
V
27 °C 10 km+ - 070° 070° 5 kt METAR DNKN 111900Z 07005KT 9999 FEW010 27/23 Q1017 NOSIG
19:00
V
29 °C 10 km+ - 360° 360° 0 kt METAR DNKN 111800Z 00000 9999 FEW011 29/22 Q1017 NOSIG
18:00
V
29 °C 10 km+ - 360° 360° 0 kt METAR DNKN 111700Z CALM 9999 FEW011 29/21 Q1016 NOSIG
15:00
V
27 °C 10 km+ - 360° 360° 0 kt METAR DNKN 111400Z CALM 9999 FEW010 27/21 Q1017 NOSIG
14:00
V
26 °C 10 km+ - 360° 360° 0 kt METAR DNKN 111300Z CALM 9999 FEW010 26/20 Q1018 NOSIG
13:00
V
25 °C 10 km+ - 200° 200° 4 kt METAR DNKN 111200Z 20004KT 9999 FEW010 25/21 Q1018 NOSIG
12:00
V
22 °C 10 km+ - 360° 360° 0 kt METAR DNKN 111100Z 00000KT 9999 FEW009 22/21 Q1018 NOSIG
10:00
I
22 °C 5 km 900 ft 260° 260° 5 kt METAR DNKN 110900Z 26005KT 5000 -TSRA BKN009 FEW018CB 22/21 Q1019 NOSIG
09:15
I
21 °C 5 km 900 ft 250° 250° 7 kt METAR DNKN 110815Z 25007KT 5000 -TSRA BKN009 FEW018CB 21/20 Q1019 NOSIG
09:00
I
21 °C 5 km 800 ft 250° 250° 7 kt METAR DNKN 110800Z 25007KT 5000 -TSRA BKN008 FEW018CB 21/20 Q1019 NOSIG
08:00
I
21 °C 5 km 900 ft 240° 240° 5 kt METAR DNKN 110700Z 24005KT 5000 TSRA BKN009 FEW018CB S-W 21/21 Q1020 NOSIG
07:00
I
21 °C 5 km 800 ft 090° 090° 10 kt METAR DNKN 110600Z 09010KT 5000 TSRA BKN008 FEW018CB 21/21 Q1019 NOSIG
Wijziging doorgeven